sensor_id;sensor_type;location;lat;lon;timestamp;temperature;humidity
52451;DHT22;38366;53.176;6.540;2023-03-05T00:01:53;3.50;99.90
52451;DHT22;38366;53.176;6.540;2023-03-05T00:04:19;3.60;99.90
52451;DHT22;38366;53.176;6.540;2023-03-05T00:06:46;3.60;99.90
52451;DHT22;38366;53.176;6.540;2023-03-05T00:09:11;4.80;99.90
52451;DHT22;38366;53.176;6.540;2023-03-05T00:11:37;3.60;99.90
52451;DHT22;38366;53.176;6.540;2023-03-05T00:14:04;3.60;99.90
52451;DHT22;38366;53.176;6.540;2023-03-05T00:16:32;3.60;99.90
52451;DHT22;38366;53.176;6.540;2023-03-05T00:18:59;3.60;99.90
52451;DHT22;38366;53.176;6.540;2023-03-05T00:21:31;3.60;99.90
52451;DHT22;38366;53.176;6.540;2023-03-05T00:23:59;3.70;99.90
52451;DHT22;38366;53.176;6.540;2023-03-05T00:26:29;3.90;99.90
52451;DHT22;38366;53.176;6.540;2023-03-05T00:28:56;3.60;99.90
52451;DHT22;38366;53.176;6.540;2023-03-05T00:31:24;3.60;99.90
52451;DHT22;38366;53.176;6.540;2023-03-05T00:33:55;3.60;99.90
52451;DHT22;38366;53.176;6.540;2023-03-05T00:36:21;3.60;99.90
52451;DHT22;38366;53.176;6.540;2023-03-05T00:38:47;3.60;99.90
52451;DHT22;38366;53.176;6.540;2023-03-05T00:41:13;3.60;99.90
52451;DHT22;38366;53.176;6.540;2023-03-05T00:43:39;4.70;99.90
52451;DHT22;38366;53.176;6.540;2023-03-05T00:46:04;4.60;99.90
52451;DHT22;38366;53.176;6.540;2023-03-05T00:48:30;3.80;99.90
52451;DHT22;38366;53.176;6.540;2023-03-05T00:50:56;3.60;99.90
52451;DHT22;38366;53.176;6.540;2023-03-05T00:53:22;3.70;99.90
52451;DHT22;38366;53.176;6.540;2023-03-05T00:55:48;3.70;99.90
52451;DHT22;38366;53.176;6.540;2023-03-05T00:58:14;3.70;99.90
52451;DHT22;38366;53.176;6.540;2023-03-05T01:00:40;3.70;99.90
52451;DHT22;38366;53.176;6.540;2023-03-05T01:03:06;3.70;99.90
52451;DHT22;38366;53.176;6.540;2023-03-05T01:05:32;3.60;99.90
52451;DHT22;38366;53.176;6.540;2023-03-05T01:07:57;3.60;99.90
52451;DHT22;38366;53.176;6.540;2023-03-05T01:10:23;3.60;99.90
52451;DHT22;38366;53.176;6.540;2023-03-05T01:12:56;3.70;99.90
52451;DHT22;38366;53.176;6.540;2023-03-05T01:15:23;3.70;99.90
52451;DHT22;38366;53.176;6.540;2023-03-05T01:17:49;4.20;99.90
52451;DHT22;38366;53.176;6.540;2023-03-05T01:20:16;4.60;99.90
52451;DHT22;38366;53.176;6.540;2023-03-05T01:22:42;3.70;99.90
52451;DHT22;38366;53.176;6.540;2023-03-05T01:25:08;4.00;99.90
52451;DHT22;38366;53.176;6.540;2023-03-05T01:27:34;3.60;99.90
52451;DHT22;38366;53.176;6.540;2023-03-05T01:30:00;3.90;99.90
52451;DHT22;38366;53.176;6.540;2023-03-05T01:32:26;3.50;99.90
52451;DHT22;38366;53.176;6.540;2023-03-05T01:34:51;3.50;99.90
52451;DHT22;38366;53.176;6.540;2023-03-05T01:37:17;3.70;99.90
52451;DHT22;38366;53.176;6.540;2023-03-05T01:39:43;4.00;99.90
52451;DHT22;38366;53.176;6.540;2023-03-05T01:42:08;3.30;99.90
52451;DHT22;38366;53.176;6.540;2023-03-05T01:44:34;3.30;99.90
52451;DHT22;38366;53.176;6.540;2023-03-05T01:47:01;4.20;99.90
52451;DHT22;38366;53.176;6.540;2023-03-05T01:49:36;3.20;99.90
52451;DHT22;38366;53.176;6.540;2023-03-05T01:52:17;3.30;99.90
52451;DHT22;38366;53.176;6.540;2023-03-05T01:54:47;3.30;99.90
52451;DHT22;38366;53.176;6.540;2023-03-05T01:57:17;3.20;99.90
52451;DHT22;38366;53.176;6.540;2023-03-05T01:59:48;3.20;99.90
52451;DHT22;38366;53.176;6.540;2023-03-05T02:02:15;3.20;99.90
52451;DHT22;38366;53.176;6.540;2023-03-05T02:04:54;3.10;99.90
52451;DHT22;38366;53.176;6.540;2023-03-05T02:07:22;3.20;99.90
52451;DHT22;38366;53.176;6.540;2023-03-05T02:09:48;3.20;99.90
52451;DHT22;38366;53.176;6.540;2023-03-05T02:12:14;3.40;99.90
52451;DHT22;38366;53.176;6.540;2023-03-05T02:14:43;3.20;99.90
52451;DHT22;38366;53.176;6.540;2023-03-05T02:17:10;3.10;99.90
52451;DHT22;38366;53.176;6.540;2023-03-05T02:22:17;3.10;99.90
52451;DHT22;38366;53.176;6.540;2023-03-05T02:24:43;3.10;99.90
52451;DHT22;38366;53.176;6.540;2023-03-05T02:27:08;3.20;99.90
52451;DHT22;38366;53.176;6.540;2023-03-05T02:29:36;3.20;99.90
52451;DHT22;38366;53.176;6.540;2023-03-05T02:32:05;3.00;99.90
52451;DHT22;38366;53.176;6.540;2023-03-05T02:34:31;3.00;99.90
52451;DHT22;38366;53.176;6.540;2023-03-05T02:36:56;3.00;99.90
52451;DHT22;38366;53.176;6.540;2023-03-05T02:39:22;4.00;99.90
52451;DHT22;38366;53.176;6.540;2023-03-05T02:41:48;3.10;99.90
52451;DHT22;38366;53.176;6.540;2023-03-05T02:44:14;3.10;99.90
52451;DHT22;38366;53.176;6.540;2023-03-05T02:46:39;3.60;99.90
52451;DHT22;38366;53.176;6.540;2023-03-05T02:49:05;3.10;99.90
52451;DHT22;38366;53.176;6.540;2023-03-05T02:51:32;3.10;99.90
52451;DHT22;38366;53.176;6.540;2023-03-05T02:53:58;4.00;99.90
52451;DHT22;38366;53.176;6.540;2023-03-05T02:56:23;3.10;99.90
52451;DHT22;38366;53.176;6.540;2023-03-05T02:58:49;3.90;99.90
52451;DHT22;38366;53.176;6.540;2023-03-05T03:01:15;3.10;99.90
52451;DHT22;38366;53.176;6.540;2023-03-05T03:03:40;3.10;99.90
52451;DHT22;38366;53.176;6.540;2023-03-05T03:06:06;3.10;99.90
52451;DHT22;38366;53.176;6.540;2023-03-05T03:08:32;3.30;99.90
52451;DHT22;38366;53.176;6.540;2023-03-05T03:11:04;3.20;99.90
52451;DHT22;38366;53.176;6.540;2023-03-05T03:13:30;3.10;99.90
52451;DHT22;38366;53.176;6.540;2023-03-05T03:16:07;3.20;99.90
52451;DHT22;38366;53.176;6.540;2023-03-05T03:18:33;3.20;99.90
52451;DHT22;38366;53.176;6.540;2023-03-05T03:21:00;3.10;99.90
52451;DHT22;38366;53.176;6.540;2023-03-05T03:23:26;3.10;99.90
52451;DHT22;38366;53.176;6.540;2023-03-05T03:25:51;3.20;99.90
52451;DHT22;38366;53.176;6.540;2023-03-05T03:28:17;4.10;99.90
52451;DHT22;38366;53.176;6.540;2023-03-05T03:30:43;3.10;99.90
52451;DHT22;38366;53.176;6.540;2023-03-05T03:33:09;3.90;99.90
52451;DHT22;38366;53.176;6.540;2023-03-05T03:35:34;3.00;99.90
52451;DHT22;38366;53.176;6.540;2023-03-05T03:38:00;3.00;99.90
52451;DHT22;38366;53.176;6.540;2023-03-05T03:40:26;2.90;99.90
52451;DHT22;38366;53.176;6.540;2023-03-05T03:42:52;2.90;99.90
52451;DHT22;38366;53.176;6.540;2023-03-05T03:45:18;2.90;99.90
52451;DHT22;38366;53.176;6.540;2023-03-05T03:47:50;3.20;99.90
52451;DHT22;38366;53.176;6.540;2023-03-05T03:50:17;2.80;99.90
52451;DHT22;38366;53.176;6.540;2023-03-05T03:52:43;2.80;99.90
52451;DHT22;38366;53.176;6.540;2023-03-05T03:55:09;3.60;99.90
52451;DHT22;38366;53.176;6.540;2023-03-05T03:57:36;2.70;99.90
52451;DHT22;38366;53.176;6.540;2023-03-05T04:00:02;2.70;99.90
52451;DHT22;38366;53.176;6.540;2023-03-05T04:02:31;2.70;99.90
52451;DHT22;38366;53.176;6.540;2023-03-05T04:04:57;3.50;99.90
52451;DHT22;38366;53.176;6.540;2023-03-05T04:07:23;2.80;99.90
52451;DHT22;38366;53.176;6.540;2023-03-05T04:09:49;2.80;99.90
52451;DHT22;38366;53.176;6.540;2023-03-05T04:12:14;2.80;99.90
52451;DHT22;38366;53.176;6.540;2023-03-05T04:14:46;3.30;99.90
52451;DHT22;38366;53.176;6.540;2023-03-05T04:17:13;3.70;99.90
52451;DHT22;38366;53.176;6.540;2023-03-05T04:19:40;2.70;99.90
52451;DHT22;38366;53.176;6.540;2023-03-05T04:22:08;3.40;99.90
52451;DHT22;38366;53.176;6.540;2023-03-05T04:24:34;2.70;99.90
52451;DHT22;38366;53.176;6.540;2023-03-05T04:27:00;2.70;99.90
52451;DHT22;38366;53.176;6.540;2023-03-05T04:29:26;2.70;99.90
52451;DHT22;38366;53.176;6.540;2023-03-05T04:31:51;2.60;99.90
52451;DHT22;38366;53.176;6.540;2023-03-05T04:34:17;2.60;99.90
52451;DHT22;38366;53.176;6.540;2023-03-05T04:36:43;3.70;99.90
52451;DHT22;38366;53.176;6.540;2023-03-05T04:39:08;3.10;99.90
52451;DHT22;38366;53.176;6.540;2023-03-05T04:41:34;2.60;99.90
52451;DHT22;38366;53.176;6.540;2023-03-05T04:44:00;2.60;99.90
52451;DHT22;38366;53.176;6.540;2023-03-05T04:46:26;2.60;99.90
52451;DHT22;38366;53.176;6.540;2023-03-05T04:48:52;2.70;99.90
52451;DHT22;38366;53.176;6.540;2023-03-05T04:51:17;2.70;99.90
52451;DHT22;38366;53.176;6.540;2023-03-05T04:53:43;2.80;99.90
52451;DHT22;38366;53.176;6.540;2023-03-05T04:56:09;2.70;99.90
52451;DHT22;38366;53.176;6.540;2023-03-05T04:58:34;3.50;99.90
52451;DHT22;38366;53.176;6.540;2023-03-05T05:01:04;2.70;99.90
52451;DHT22;38366;53.176;6.540;2023-03-05T05:03:31;2.90;99.90
52451;DHT22;38366;53.176;6.540;2023-03-05T05:05:58;2.70;99.90
52451;DHT22;38366;53.176;6.540;2023-03-05T05:08:24;2.70;99.90
52451;DHT22;38366;53.176;6.540;2023-03-05T05:11:02;2.70;99.90
52451;DHT22;38366;53.176;6.540;2023-03-05T05:13:28;2.80;99.90
52451;DHT22;38366;53.176;6.540;2023-03-05T05:15:54;2.70;99.90
52451;DHT22;38366;53.176;6.540;2023-03-05T05:18:20;2.60;99.90
52451;DHT22;38366;53.176;6.540;2023-03-05T05:20:46;2.60;99.90
52451;DHT22;38366;53.176;6.540;2023-03-05T05:23:12;2.50;99.90
52451;DHT22;38366;53.176;6.540;2023-03-05T05:25:38;2.70;99.90
52451;DHT22;38366;53.176;6.540;2023-03-05T05:28:04;2.50;99.90
52451;DHT22;38366;53.176;6.540;2023-03-05T05:30:30;2.50;99.90
52451;DHT22;38366;53.176;6.540;2023-03-05T05:32:56;2.50;99.90
52451;DHT22;38366;53.176;6.540;2023-03-05T05:35:21;2.60;99.90
52451;DHT22;38366;53.176;6.540;2023-03-05T05:37:47;2.60;99.90
52451;DHT22;38366;53.176;6.540;2023-03-05T05:40:13;2.60;99.90
52451;DHT22;38366;53.176;6.540;2023-03-05T05:42:39;2.60;99.90
52451;DHT22;38366;53.176;6.540;2023-03-05T05:45:05;2.60;99.90
52451;DHT22;38366;53.176;6.540;2023-03-05T05:47:31;2.70;99.90
52451;DHT22;38366;53.176;6.540;2023-03-05T05:49:57;3.50;99.90
52451;DHT22;38366;53.176;6.540;2023-03-05T05:52:23;2.60;99.90
52451;DHT22;38366;53.176;6.540;2023-03-05T05:54:48;2.60;99.90
52451;DHT22;38366;53.176;6.540;2023-03-05T05:57:14;2.50;99.90
52451;DHT22;38366;53.176;6.540;2023-03-05T05:59:41;3.00;99.90
52451;DHT22;38366;53.176;6.540;2023-03-05T06:02:07;2.40;99.90
52451;DHT22;38366;53.176;6.540;2023-03-05T06:04:34;2.40;99.90
52451;DHT22;38366;53.176;6.540;2023-03-05T06:07:00;2.60;99.90
52451;DHT22;38366;53.176;6.540;2023-03-05T06:09:26;2.30;99.90
52451;DHT22;38366;53.176;6.540;2023-03-05T06:11:51;2.30;99.90
52451;DHT22;38366;53.176;6.540;2023-03-05T06:14:17;2.30;99.90
52451;DHT22;38366;53.176;6.540;2023-03-05T06:16:43;2.20;99.90
52451;DHT22;38366;53.176;6.540;2023-03-05T06:19:13;2.30;99.90
52451;DHT22;38366;53.176;6.540;2023-03-05T06:21:39;2.20;99.90
52451;DHT22;38366;53.176;6.540;2023-03-05T06:24:05;2.20;99.90
52451;DHT22;38366;53.176;6.540;2023-03-05T06:26:31;2.20;99.90
52451;DHT22;38366;53.176;6.540;2023-03-05T06:28:57;2.20;99.90
52451;DHT22;38366;53.176;6.540;2023-03-05T06:31:25;2.10;99.90
52451;DHT22;38366;53.176;6.540;2023-03-05T06:33:56;2.10;99.90
52451;DHT22;38366;53.176;6.540;2023-03-05T06:36:23;3.10;99.90
52451;DHT22;38366;53.176;6.540;2023-03-05T06:38:50;3.10;99.90
52451;DHT22;38366;53.176;6.540;2023-03-05T06:41:18;2.40;99.90
52451;DHT22;38366;53.176;6.540;2023-03-05T06:43:45;2.20;99.90
52451;DHT22;38366;53.176;6.540;2023-03-05T06:48:42;2.20;99.90
52451;DHT22;38366;53.176;6.540;2023-03-05T06:53:43;2.20;99.90
52451;DHT22;38366;53.176;6.540;2023-03-05T06:56:09;2.30;99.90
52451;DHT22;38366;53.176;6.540;2023-03-05T06:58:35;2.40;99.90
52451;DHT22;38366;53.176;6.540;2023-03-05T07:01:04;2.30;99.90
52451;DHT22;38366;53.176;6.540;2023-03-05T07:03:31;2.40;99.90
52451;DHT22;38366;53.176;6.540;2023-03-05T07:05:56;2.40;99.90
52451;DHT22;38366;53.176;6.540;2023-03-05T07:08:22;4.00;99.90
52451;DHT22;38366;53.176;6.540;2023-03-05T07:10:47;2.60;99.90
52451;DHT22;38366;53.176;6.540;2023-03-05T07:13:13;2.50;99.90
52451;DHT22;38366;53.176;6.540;2023-03-05T07:15:40;3.30;99.90
52451;DHT22;38366;53.176;6.540;2023-03-05T07:18:05;2.60;99.90
52451;DHT22;38366;53.176;6.540;2023-03-05T07:20:37;2.60;99.90
52451;DHT22;38366;53.176;6.540;2023-03-05T07:23:03;2.70;99.90
52451;DHT22;38366;53.176;6.540;2023-03-05T07:25:29;2.70;99.90
52451;DHT22;38366;53.176;6.540;2023-03-05T07:27:55;2.90;99.90
52451;DHT22;38366;53.176;6.540;2023-03-05T07:30:20;2.90;99.90
52451;DHT22;38366;53.176;6.540;2023-03-05T07:32:46;3.00;99.90
52451;DHT22;38366;53.176;6.540;2023-03-05T07:35:12;3.10;99.90
52451;DHT22;38366;53.176;6.540;2023-03-05T07:37:38;3.20;99.90
52451;DHT22;38366;53.176;6.540;2023-03-05T07:40:04;3.40;99.90
52451;DHT22;38366;53.176;6.540;2023-03-05T07:42:30;3.50;99.90
52451;DHT22;38366;53.176;6.540;2023-03-05T07:44:56;3.50;99.90
52451;DHT22;38366;53.176;6.540;2023-03-05T07:47:21;3.60;99.90
52451;DHT22;38366;53.176;6.540;2023-03-05T07:49:50;3.80;99.90
52451;DHT22;38366;53.176;6.540;2023-03-05T07:52:16;3.90;99.90
52451;DHT22;38366;53.176;6.540;2023-03-05T07:54:42;4.00;99.90
52451;DHT22;38366;53.176;6.540;2023-03-05T07:57:09;4.10;99.90
52451;DHT22;38366;53.176;6.540;2023-03-05T07:59:37;4.20;99.90
52451;DHT22;38366;53.176;6.540;2023-03-05T08:02:04;4.70;99.90
52451;DHT22;38366;53.176;6.540;2023-03-05T08:04:29;4.30;99.90
52451;DHT22;38366;53.176;6.540;2023-03-05T08:06:57;4.50;99.90
52451;DHT22;38366;53.176;6.540;2023-03-05T08:09:23;4.60;99.90
52451;DHT22;38366;53.176;6.540;2023-03-05T08:11:49;5.00;99.90
52451;DHT22;38366;53.176;6.540;2023-03-05T08:14:15;5.20;99.90
52451;DHT22;38366;53.176;6.540;2023-03-05T08:16:41;5.30;99.90
52451;DHT22;38366;53.176;6.540;2023-03-05T08:19:06;5.40;99.90
52451;DHT22;38366;53.176;6.540;2023-03-05T08:21:34;5.60;99.90
52451;DHT22;38366;53.176;6.540;2023-03-05T08:24:02;5.70;99.90
52451;DHT22;38366;53.176;6.540;2023-03-05T08:26:30;5.80;99.90
52451;DHT22;38366;53.176;6.540;2023-03-05T08:28:57;5.90;99.90
52451;DHT22;38366;53.176;6.540;2023-03-05T08:31:24;6.00;99.90
52451;DHT22;38366;53.176;6.540;2023-03-05T08:33:52;6.10;99.90
52451;DHT22;38366;53.176;6.540;2023-03-05T08:36:19;6.40;99.90
52451;DHT22;38366;53.176;6.540;2023-03-05T08:38:45;6.90;99.90
52451;DHT22;38366;53.176;6.540;2023-03-05T08:41:14;7.30;99.90
52451;DHT22;38366;53.176;6.540;2023-03-05T08:43:40;7.80;99.90
52451;DHT22;38366;53.176;6.540;2023-03-05T08:46:06;8.30;99.90
52451;DHT22;38366;53.176;6.540;2023-03-05T08:48:32;8.50;99.90
52451;DHT22;38366;53.176;6.540;2023-03-05T08:51:07;8.60;99.90
52451;DHT22;38366;53.176;6.540;2023-03-05T08:53:33;8.70;99.90
52451;DHT22;38366;53.176;6.540;2023-03-05T08:55:59;8.70;99.90
52451;DHT22;38366;53.176;6.540;2023-03-05T08:58:25;8.70;99.90
52451;DHT22;38366;53.176;6.540;2023-03-05T09:00:51;8.40;99.90
52451;DHT22;38366;53.176;6.540;2023-03-05T09:03:17;8.40;99.90
52451;DHT22;38366;53.176;6.540;2023-03-05T09:05:43;8.60;99.90
52451;DHT22;38366;53.176;6.540;2023-03-05T09:08:09;9.00;99.90
52451;DHT22;38366;53.176;6.540;2023-03-05T09:10:35;9.10;99.90
52451;DHT22;38366;53.176;6.540;2023-03-05T09:13:00;9.10;99.90
52451;DHT22;38366;53.176;6.540;2023-03-05T09:15:29;8.80;99.90
52451;DHT22;38366;53.176;6.540;2023-03-05T09:17:55;8.30;99.90
52451;DHT22;38366;53.176;6.540;2023-03-05T09:20:21;7.80;99.90
52451;DHT22;38366;53.176;6.540;2023-03-05T09:22:47;6.90;99.90
52451;DHT22;38366;53.176;6.540;2023-03-05T09:25:13;6.40;99.90
52451;DHT22;38366;53.176;6.540;2023-03-05T09:27:38;6.20;99.90
52451;DHT22;38366;53.176;6.540;2023-03-05T09:30:05;5.90;99.90
52451;DHT22;38366;53.176;6.540;2023-03-05T09:32:31;5.90;99.90
52451;DHT22;38366;53.176;6.540;2023-03-05T09:34:57;5.80;99.90
52451;DHT22;38366;53.176;6.540;2023-03-05T09:37:23;6.00;99.90
52451;DHT22;38366;53.176;6.540;2023-03-05T09:39:49;6.10;99.90
52451;DHT22;38366;53.176;6.540;2023-03-05T09:42:40;6.50;99.90
52451;DHT22;38366;53.176;6.540;2023-03-05T09:48:01;7.80;99.90
52451;DHT22;38366;53.176;6.540;2023-03-05T09:56:33;9.00;99.90
52451;DHT22;38366;53.176;6.540;2023-03-05T10:01:56;9.20;99.90
52451;DHT22;38366;53.176;6.540;2023-03-05T10:07:28;9.50;99.90
52451;DHT22;38366;53.176;6.540;2023-03-05T10:09:58;9.30;99.90
52451;DHT22;38366;53.176;6.540;2023-03-05T10:12:56;9.30;99.90
52451;DHT22;38366;53.176;6.540;2023-03-05T10:15:40;9.00;99.90
52451;DHT22;38366;53.176;6.540;2023-03-05T10:18:34;8.90;99.90
52451;DHT22;38366;53.176;6.540;2023-03-05T10:23:41;8.40;99.90
52451;DHT22;38366;53.176;6.540;2023-03-05T10:31:58;8.80;99.90
52451;DHT22;38366;53.176;6.540;2023-03-05T10:42:53;10.60;99.90
52451;DHT22;38366;53.176;6.540;2023-03-05T10:45:25;10.90;99.90
52451;DHT22;38366;53.176;6.540;2023-03-05T10:50:49;10.50;99.90
52451;DHT22;38366;53.176;6.540;2023-03-05T10:53:26;10.00;99.90
52451;DHT22;38366;53.176;6.540;2023-03-05T10:55:52;9.60;99.90
52451;DHT22;38366;53.176;6.540;2023-03-05T10:58:22;10.10;99.90
52451;DHT22;38366;53.176;6.540;2023-03-05T11:01:03;10.70;99.90
52451;DHT22;38366;53.176;6.540;2023-03-05T11:06:15;11.10;99.90
52451;DHT22;38366;53.176;6.540;2023-03-05T11:08:50;11.20;99.90
52451;DHT22;38366;53.176;6.540;2023-03-05T11:11:18;11.40;99.90
52451;DHT22;38366;53.176;6.540;2023-03-05T11:18:47;12.30;99.90
52451;DHT22;38366;53.176;6.540;2023-03-05T11:21:20;12.20;99.90
52451;DHT22;38366;53.176;6.540;2023-03-05T11:24:24;11.90;99.90
52451;DHT22;38366;53.176;6.540;2023-03-05T11:26:52;11.70;99.90
52451;DHT22;38366;53.176;6.540;2023-03-05T11:29:24;11.20;99.90
52451;DHT22;38366;53.176;6.540;2023-03-05T11:31:51;10.60;99.90
52451;DHT22;38366;53.176;6.540;2023-03-05T11:39:17;12.60;99.90
52451;DHT22;38366;53.176;6.540;2023-03-05T11:41:50;12.70;99.90
52451;DHT22;38366;53.176;6.540;2023-03-05T11:46:52;11.80;99.90
52451;DHT22;38366;53.176;6.540;2023-03-05T11:49:25;10.90;99.90
52451;DHT22;38366;53.176;6.540;2023-03-05T11:52:03;10.50;99.90
52451;DHT22;38366;53.176;6.540;2023-03-05T11:54:51;10.70;99.90
52451;DHT22;38366;53.176;6.540;2023-03-05T11:57:20;10.80;99.90
52451;DHT22;38366;53.176;6.540;2023-03-05T11:59:48;10.60;99.90
52451;DHT22;38366;53.176;6.540;2023-03-05T12:02:25;10.40;99.90
52451;DHT22;38366;53.176;6.540;2023-03-05T12:04:52;10.40;99.90
52451;DHT22;38366;53.176;6.540;2023-03-05T12:07:40;10.40;99.90
52451;DHT22;38366;53.176;6.540;2023-03-05T12:10:15;11.00;99.90
52451;DHT22;38366;53.176;6.540;2023-03-05T12:13:03;10.60;99.90
52451;DHT22;38366;53.176;6.540;2023-03-05T12:15:46;10.10;99.90
52451;DHT22;38366;53.176;6.540;2023-03-05T12:23:49;9.20;99.90
52451;DHT22;38366;53.176;6.540;2023-03-05T12:26:14;9.20;99.90
52451;DHT22;38366;53.176;6.540;2023-03-05T12:33:37;10.50;99.90
52451;DHT22;38366;53.176;6.540;2023-03-05T12:39:40;10.10;99.90
52451;DHT22;38366;53.176;6.540;2023-03-05T12:41:55;10.70;99.90
52451;DHT22;38366;53.176;6.540;2023-03-05T12:44:21;11.20;99.90
52451;DHT22;38366;53.176;6.540;2023-03-05T12:49:39;11.20;99.90
52451;DHT22;38366;53.176;6.540;2023-03-05T12:52:23;11.30;99.90
52451;DHT22;38366;53.176;6.540;2023-03-05T12:55:17;11.00;99.90
52451;DHT22;38366;53.176;6.540;2023-03-05T12:57:45;10.70;99.90
52451;DHT22;38366;53.176;6.540;2023-03-05T13:02:44;10.20;99.90
52451;DHT22;38366;53.176;6.540;2023-03-05T13:05:46;10.60;99.90
52451;DHT22;38366;53.176;6.540;2023-03-05T13:08:25;11.50;99.90
52451;DHT22;38366;53.176;6.540;2023-03-05T13:11:00;12.00;99.90
52451;DHT22;38366;53.176;6.540;2023-03-05T13:13:28;11.90;99.90
52451;DHT22;38366;53.176;6.540;2023-03-05T13:15:55;12.10;99.90
52451;DHT22;38366;53.176;6.540;2023-03-05T13:18:26;12.60;99.90
52451;DHT22;38366;53.176;6.540;2023-03-05T13:21:22;12.60;99.90
52451;DHT22;38366;53.176;6.540;2023-03-05T13:23:51;13.00;99.90
52451;DHT22;38366;53.176;6.540;2023-03-05T13:26:35;12.60;99.90
52451;DHT22;38366;53.176;6.540;2023-03-05T13:29:16;12.20;99.90
52451;DHT22;38366;53.176;6.540;2023-03-05T13:31:52;10.90;99.90
52451;DHT22;38366;53.176;6.540;2023-03-05T13:34:35;10.30;99.90
52451;DHT22;38366;53.176;6.540;2023-03-05T13:37:13;10.10;99.90
52451;DHT22;38366;53.176;6.540;2023-03-05T13:40:00;9.80;99.90
52451;DHT22;38366;53.176;6.540;2023-03-05T13:42:31;9.40;99.90
52451;DHT22;38366;53.176;6.540;2023-03-05T13:45:19;9.20;99.90
52451;DHT22;38366;53.176;6.540;2023-03-05T13:48:00;9.10;99.90
52451;DHT22;38366;53.176;6.540;2023-03-05T13:50:33;9.40;99.90
52451;DHT22;38366;53.176;6.540;2023-03-05T13:53:25;9.30;99.90
52451;DHT22;38366;53.176;6.540;2023-03-05T13:55:55;9.20;99.90
52451;DHT22;38366;53.176;6.540;2023-03-05T14:02:00;9.30;99.90
52451;DHT22;38366;53.176;6.540;2023-03-05T14:06:52;9.20;99.90
52451;DHT22;38366;53.176;6.540;2023-03-05T14:09:31;9.00;99.90
52451;DHT22;38366;53.176;6.540;2023-03-05T14:12:24;8.90;99.90
52451;DHT22;38366;53.176;6.540;2023-03-05T14:14:51;8.90;99.90
52451;DHT22;38366;53.176;6.540;2023-03-05T14:22:43;8.70;99.90
52451;DHT22;38366;53.176;6.540;2023-03-05T14:27:55;8.50;99.90
52451;DHT22;38366;53.176;6.540;2023-03-05T14:30:23;8.60;99.90
52451;DHT22;38366;53.176;6.540;2023-03-05T14:32:50;8.50;99.90
52451;DHT22;38366;53.176;6.540;2023-03-05T14:35:19;8.40;99.90
52451;DHT22;38366;53.176;6.540;2023-03-05T14:37:48;8.40;99.90
52451;DHT22;38366;53.176;6.540;2023-03-05T14:43:12;8.10;99.90
52451;DHT22;38366;53.176;6.540;2023-03-05T14:45:39;7.90;99.90
52451;DHT22;38366;53.176;6.540;2023-03-05T14:48:06;7.80;99.90
52451;DHT22;38366;53.176;6.540;2023-03-05T14:50:43;7.90;99.90
52451;DHT22;38366;53.176;6.540;2023-03-05T14:53:15;8.10;99.90
52451;DHT22;38366;53.176;6.540;2023-03-05T14:55:42;8.10;99.90
52451;DHT22;38366;53.176;6.540;2023-03-05T14:58:18;8.20;99.90
52451;DHT22;38366;53.176;6.540;2023-03-05T15:00:46;8.20;99.90
52451;DHT22;38366;53.176;6.540;2023-03-05T15:03:15;8.30;99.90
52451;DHT22;38366;53.176;6.540;2023-03-05T15:05:42;8.10;99.90
52451;DHT22;38366;53.176;6.540;2023-03-05T15:08:14;8.10;99.90
52451;DHT22;38366;53.176;6.540;2023-03-05T15:10:41;8.10;99.90
52451;DHT22;38366;53.176;6.540;2023-03-05T15:13:07;8.10;99.90
52451;DHT22;38366;53.176;6.540;2023-03-05T15:15:33;8.30;99.90
52451;DHT22;38366;53.176;6.540;2023-03-05T15:17:58;8.40;99.90
52451;DHT22;38366;53.176;6.540;2023-03-05T15:20:27;8.20;99.90
52451;DHT22;38366;53.176;6.540;2023-03-05T15:22:54;8.00;99.90
52451;DHT22;38366;53.176;6.540;2023-03-05T15:25:22;8.00;99.90
52451;DHT22;38366;53.176;6.540;2023-03-05T15:27:49;8.00;99.90
52451;DHT22;38366;53.176;6.540;2023-03-05T15:30:28;7.90;99.90
52451;DHT22;38366;53.176;6.540;2023-03-05T15:32:56;7.90;99.90
52451;DHT22;38366;53.176;6.540;2023-03-05T15:35:23;7.80;99.90
52451;DHT22;38366;53.176;6.540;2023-03-05T15:37:49;7.70;99.90
52451;DHT22;38366;53.176;6.540;2023-03-05T15:40:15;7.50;99.90
52451;DHT22;38366;53.176;6.540;2023-03-05T15:42:41;7.40;99.90
52451;DHT22;38366;53.176;6.540;2023-03-05T15:45:07;7.30;99.90
52451;DHT22;38366;53.176;6.540;2023-03-05T15:47:33;7.20;99.90
52451;DHT22;38366;53.176;6.540;2023-03-05T15:49:59;7.10;99.90
52451;DHT22;38366;53.176;6.540;2023-03-05T15:52:24;7.00;99.90
52451;DHT22;38366;53.176;6.540;2023-03-05T15:54:50;7.00;99.90
52451;DHT22;38366;53.176;6.540;2023-03-05T15:57:18;7.00;99.90
52451;DHT22;38366;53.176;6.540;2023-03-05T15:59:47;7.00;99.90
52451;DHT22;38366;53.176;6.540;2023-03-05T16:02:12;6.90;99.90
52451;DHT22;38366;53.176;6.540;2023-03-05T16:04:38;6.90;99.90
52451;DHT22;38366;53.176;6.540;2023-03-05T16:07:05;6.90;99.90
52451;DHT22;38366;53.176;6.540;2023-03-05T16:09:32;6.80;99.90
52451;DHT22;38366;53.176;6.540;2023-03-05T16:12:00;6.80;99.90
52451;DHT22;38366;53.176;6.540;2023-03-05T16:14:28;6.80;99.90
52451;DHT22;38366;53.176;6.540;2023-03-05T16:16:55;6.80;99.90
52451;DHT22;38366;53.176;6.540;2023-03-05T16:19:23;6.80;99.90
52451;DHT22;38366;53.176;6.540;2023-03-05T16:21:49;6.80;99.90
52451;DHT22;38366;53.176;6.540;2023-03-05T16:24:15;6.80;99.90
52451;DHT22;38366;53.176;6.540;2023-03-05T16:26:41;6.80;99.90
52451;DHT22;38366;53.176;6.540;2023-03-05T16:29:08;6.90;99.90
52451;DHT22;38366;53.176;6.540;2023-03-05T16:31:35;6.90;99.90
52451;DHT22;38366;53.176;6.540;2023-03-05T16:34:03;6.90;99.90
52451;DHT22;38366;53.176;6.540;2023-03-05T16:36:30;6.90;99.90
52451;DHT22;38366;53.176;6.540;2023-03-05T16:38:58;6.90;99.90
52451;DHT22;38366;53.176;6.540;2023-03-05T16:41:25;6.80;99.90
52451;DHT22;38366;53.176;6.540;2023-03-05T16:43:52;6.70;99.90
52451;DHT22;38366;53.176;6.540;2023-03-05T16:46:19;6.60;99.90
52451;DHT22;38366;53.176;6.540;2023-03-05T16:48:44;6.40;99.90
52451;DHT22;38366;53.176;6.540;2023-03-05T16:51:11;6.40;99.90
52451;DHT22;38366;53.176;6.540;2023-03-05T16:53:38;6.20;99.90
52451;DHT22;38366;53.176;6.540;2023-03-05T16:56:05;6.20;99.90
52451;DHT22;38366;53.176;6.540;2023-03-05T16:58:32;6.10;99.90
52451;DHT22;38366;53.176;6.540;2023-03-05T17:00:59;6.10;99.90
52451;DHT22;38366;53.176;6.540;2023-03-05T17:03:26;6.10;99.90
52451;DHT22;38366;53.176;6.540;2023-03-05T17:05:52;6.00;99.90
52451;DHT22;38366;53.176;6.540;2023-03-05T17:08:18;6.00;99.90
52451;DHT22;38366;53.176;6.540;2023-03-05T17:10:44;5.90;99.90
52451;DHT22;38366;53.176;6.540;2023-03-05T17:13:09;5.90;99.90
52451;DHT22;38366;53.176;6.540;2023-03-05T17:15:35;6.00;99.90
52451;DHT22;38366;53.176;6.540;2023-03-05T17:18:02;5.90;99.90
52451;DHT22;38366;53.176;6.540;2023-03-05T17:20:27;5.90;99.90
52451;DHT22;38366;53.176;6.540;2023-03-05T17:22:53;5.80;99.90
52451;DHT22;38366;53.176;6.540;2023-03-05T17:25:19;5.90;99.90
52451;DHT22;38366;53.176;6.540;2023-03-05T17:27:46;5.80;99.90